sensor_id;sensor_type;location;lat;lon;timestamp;pressure;altitude;pressure_sealevel;temperature;humidity
16016;BME280;8112;53.592;10.184;2024-03-23T00:55:56;100483.88;;;6.82;100.00
16016;BME280;8112;53.592;10.184;2024-03-23T01:00:59;100487.16;;;6.88;100.00
16016;BME280;8112;53.592;10.184;2024-03-23T01:06:01;100472.84;;;6.76;100.00
16016;BME280;8112;53.592;10.184;2024-03-23T01:11:03;100455.25;;;6.60;100.00
16016;BME280;8112;53.592;10.184;2024-03-23T01:16:07;100458.00;;;6.57;100.00
16016;BME280;8112;53.592;10.184;2024-03-23T01:21:09;100458.88;;;6.58;100.00
16016;BME280;8112;53.592;10.184;2024-03-23T01:26:11;100458.00;;;6.57;100.00
16016;BME280;8112;53.592;10.184;2024-03-23T01:31:15;100436.63;;;6.47;100.00
16016;BME280;8112;53.592;10.184;2024-03-23T01:36:16;100429.03;;;6.43;100.00
16016;BME280;8112;53.592;10.184;2024-03-23T01:41:19;100429.13;;;6.39;100.00
16016;BME280;8112;53.592;10.184;2024-03-23T01:46:22;100426.47;;;6.41;100.00
16016;BME280;8112;53.592;10.184;2024-03-23T01:51:24;100416.97;;;6.38;100.00
16016;BME280;8112;53.592;10.184;2024-03-23T01:56:27;100405.59;;;6.39;100.00
16016;BME280;8112;53.592;10.184;2024-03-23T02:01:31;100392.94;;;6.30;100.00
16016;BME280;8112;53.592;10.184;2024-03-23T02:06:33;100400.94;;;6.27;100.00
16016;BME280;8112;53.592;10.184;2024-03-23T02:11:35;100386.16;;;6.26;100.00
16016;BME280;8112;53.592;10.184;2024-03-23T02:16:39;100389.03;;;6.20;100.00
16016;BME280;8112;53.592;10.184;2024-03-23T02:21:42;100386.56;;;6.17;100.00
16016;BME280;8112;53.592;10.184;2024-03-23T02:26:45;100375.28;;;6.16;100.00
16016;BME280;8112;53.592;10.184;2024-03-23T02:31:48;100366.66;;;6.14;100.00
16016;BME280;8112;53.592;10.184;2024-03-23T02:36:52;100362.56;;;6.08;100.00
16016;BME280;8112;53.592;10.184;2024-03-23T02:41:55;100358.38;;;6.04;100.00
16016;BME280;8112;53.592;10.184;2024-03-23T02:46:58;100358.63;;;5.98;100.00
16016;BME280;8112;53.592;10.184;2024-03-23T02:51:59;100353.47;;;5.96;100.00
16016;BME280;8112;53.592;10.184;2024-03-23T02:57:05;100358.75;;;5.95;100.00
16016;BME280;8112;53.592;10.184;2024-03-23T03:02:08;100354.03;;;6.03;100.00
16016;BME280;8112;53.592;10.184;2024-03-23T03:07:09;100352.28;;;6.04;100.00
16016;BME280;8112;53.592;10.184;2024-03-23T03:12:13;100347.13;;;6.02;100.00
16016;BME280;8112;53.592;10.184;2024-03-23T03:17:16;100342.00;;;5.99;100.00
16016;BME280;8112;53.592;10.184;2024-03-23T03:22:18;100326.31;;;5.99;100.00
16016;BME280;8112;53.592;10.184;2024-03-23T03:27:22;100329.31;;;6.10;100.00
16016;BME280;8112;53.592;10.184;2024-03-23T03:32:24;100327.69;;;6.08;100.00
16016;BME280;8112;53.592;10.184;2024-03-23T03:37:26;100323.69;;;5.99;100.00
16016;BME280;8112;53.592;10.184;2024-03-23T03:42:30;100317.69;;;5.97;100.00
16016;BME280;8112;53.592;10.184;2024-03-23T03:47:37;100300.25;;;5.97;100.00
16016;BME280;8112;53.592;10.184;2024-03-23T03:52:39;100294.25;;;5.95;100.00
16016;BME280;8112;53.592;10.184;2024-03-23T03:57:43;100297.75;;;5.94;100.00
16016;BME280;8112;53.592;10.184;2024-03-23T04:02:45;100287.00;;;6.01;100.00
16016;BME280;8112;53.592;10.184;2024-03-23T04:07:47;100284.47;;;5.99;100.00
16016;BME280;8112;53.592;10.184;2024-03-23T04:12:51;100282.53;;;6.04;100.00
16016;BME280;8112;53.592;10.184;2024-03-23T04:17:54;100285.19;;;6.03;100.00
16016;BME280;8112;53.592;10.184;2024-03-23T04:22:56;100273.75;;;6.05;100.00
16016;BME280;8112;53.592;10.184;2024-03-23T04:28:00;100269.84;;;5.95;100.00
16016;BME280;8112;53.592;10.184;2024-03-23T04:33:01;100256.91;;;5.92;100.00
16016;BME280;8112;53.592;10.184;2024-03-23T04:38:03;100262.06;;;5.93;100.00
16016;BME280;8112;53.592;10.184;2024-03-23T04:43:07;100283.28;;;5.87;100.00
16016;BME280;8112;53.592;10.184;2024-03-23T04:48:09;100290.13;;;5.90;100.00
16016;BME280;8112;53.592;10.184;2024-03-23T04:53:13;100292.09;;;5.84;100.00
16016;BME280;8112;53.592;10.184;2024-03-23T04:58:19;100295.78;;;5.80;100.00
16016;BME280;8112;53.592;10.184;2024-03-23T05:03:21;100273.31;;;5.76;100.00
16016;BME280;8112;53.592;10.184;2024-03-23T05:08:23;100255.94;;;5.75;100.00
16016;BME280;8112;53.592;10.184;2024-03-23T05:13:26;100250.34;;;5.83;100.00
16016;BME280;8112;53.592;10.184;2024-03-23T05:18:29;100271.06;;;5.88;100.00
16016;BME280;8112;53.592;10.184;2024-03-23T05:23:31;100265.06;;;5.85;100.00
16016;BME280;8112;53.592;10.184;2024-03-23T05:28:34;100267.00;;;5.99;100.00
16016;BME280;8112;53.592;10.184;2024-03-23T05:33:36;100254.44;;;6.08;100.00
16016;BME280;8112;53.592;10.184;2024-03-23T05:38:39;100256.06;;;6.10;100.00
16016;BME280;8112;53.592;10.184;2024-03-23T05:43:43;100254.53;;;6.06;100.00
16016;BME280;8112;53.592;10.184;2024-03-23T05:48:44;100244.75;;;6.10;100.00
16016;BME280;8112;53.592;10.184;2024-03-23T05:53:46;100238.22;;;6.19;100.00
16016;BME280;8112;53.592;10.184;2024-03-23T05:58:50;100217.69;;;6.28;100.00
16016;BME280;8112;53.592;10.184;2024-03-23T06:03:52;100214.53;;;6.39;100.00
16016;BME280;8112;53.592;10.184;2024-03-23T06:08:53;100211.78;;;6.43;100.00
16016;BME280;8112;53.592;10.184;2024-03-23T06:13:57;100215.78;;;6.50;100.00
16016;BME280;8112;53.592;10.184;2024-03-23T06:19:00;100218.69;;;6.61;100.00
16016;BME280;8112;53.592;10.184;2024-03-23T06:24:05;100213.59;;;6.76;100.00
16016;BME280;8112;53.592;10.184;2024-03-23T06:29:09;100219.19;;;6.85;100.00
16016;BME280;8112;53.592;10.184;2024-03-23T06:34:11;100206.97;;;6.86;100.00
16016;BME280;8112;53.592;10.184;2024-03-23T06:39:13;100202.66;;;6.85;100.00
16016;BME280;8112;53.592;10.184;2024-03-23T06:44:17;100213.09;;;7.03;100.00
16016;BME280;8112;53.592;10.184;2024-03-23T06:49:22;100195.22;;;7.43;100.00
16016;BME280;8112;53.592;10.184;2024-03-23T06:54:24;100194.03;;;7.49;100.00
16016;BME280;8112;53.592;10.184;2024-03-23T06:59:27;100180.25;;;7.45;100.00
16016;BME280;8112;53.592;10.184;2024-03-23T07:04:29;100172.72;;;7.39;100.00
16016;BME280;8112;53.592;10.184;2024-03-23T07:09:31;100168.72;;;7.16;100.00
16016;BME280;8112;53.592;10.184;2024-03-23T07:14:35;100174.06;;;7.14;100.00
16016;BME280;8112;53.592;10.184;2024-03-23T07:19:37;100173.22;;;7.13;100.00
16016;BME280;8112;53.592;10.184;2024-03-23T07:24:38;100176.94;;;7.09;100.00
16016;BME280;8112;53.592;10.184;2024-03-23T07:29:42;100184.72;;;7.43;100.00
16016;BME280;8112;53.592;10.184;2024-03-23T07:34:44;100174.75;;;7.50;100.00
16016;BME280;8112;53.592;10.184;2024-03-23T07:39:47;100169.34;;;7.53;100.00
16016;BME280;8112;53.592;10.184;2024-03-23T07:44:50;100175.25;;;7.73;100.00
16016;BME280;8112;53.592;10.184;2024-03-23T07:49:52;100168.34;;;8.02;100.00
16016;BME280;8112;53.592;10.184;2024-03-23T07:54:54;100161.97;;;8.67;100.00
16016;BME280;8112;53.592;10.184;2024-03-23T07:59:57;100152.13;;;9.00;100.00
16016;BME280;8112;53.592;10.184;2024-03-23T08:04:59;100145.94;;;8.72;100.00
16016;BME280;8112;53.592;10.184;2024-03-23T08:10:01;100139.94;;;8.70;100.00
16016;BME280;8112;53.592;10.184;2024-03-23T08:15:06;100138.16;;;8.70;100.00
16016;BME280;8112;53.592;10.184;2024-03-23T08:20:08;100145.72;;;8.61;100.00
16016;BME280;8112;53.592;10.184;2024-03-23T08:25:11;100134.31;;;8.76;100.00
16016;BME280;8112;53.592;10.184;2024-03-23T08:30:15;100127.31;;;9.04;100.00
16016;BME280;8112;53.592;10.184;2024-03-23T08:35:17;100128.38;;;9.16;100.00
16016;BME280;8112;53.592;10.184;2024-03-23T08:40:23;100125.84;;;9.42;100.00
16016;BME280;8112;53.592;10.184;2024-03-23T08:45:26;100115.09;;;10.00;100.00
16016;BME280;8112;53.592;10.184;2024-03-23T08:50:28;100105.22;;;10.17;100.00
16016;BME280;8112;53.592;10.184;2024-03-23T08:55:30;100095.44;;;10.32;100.00
16016;BME280;8112;53.592;10.184;2024-03-23T09:00:34;100090.75;;;10.50;100.00
16016;BME280;8112;53.592;10.184;2024-03-23T09:05:38;100098.94;;;10.45;100.00
16016;BME280;8112;53.592;10.184;2024-03-23T09:10:41;100082.88;;;10.87;100.00
16016;BME280;8112;53.592;10.184;2024-03-23T09:15:48;100077.41;;;10.90;100.00
16016;BME280;8112;53.592;10.184;2024-03-23T09:20:50;100085.75;;;10.58;100.00
16016;BME280;8112;53.592;10.184;2024-03-23T09:25:53;100073.00;;;10.65;100.00
16016;BME280;8112;53.592;10.184;2024-03-23T09:31:02;100072.91;;;11.41;100.00
16016;BME280;8112;53.592;10.184;2024-03-23T09:36:04;100067.13;;;11.11;100.00
16016;BME280;8112;53.592;10.184;2024-03-23T09:41:07;100055.03;;;10.96;100.00
16016;BME280;8112;53.592;10.184;2024-03-23T09:46:13;100065.84;;;10.28;100.00
16016;BME280;8112;53.592;10.184;2024-03-23T09:51:15;100070.34;;;10.13;100.00
16016;BME280;8112;53.592;10.184;2024-03-23T09:56:16;100053.81;;;10.11;100.00
16016;BME280;8112;53.592;10.184;2024-03-23T10:01:20;100049.09;;;11.30;100.00
16016;BME280;8112;53.592;10.184;2024-03-23T10:06:24;100048.25;;;11.89;100.00
16016;BME280;8112;53.592;10.184;2024-03-23T10:11:27;100050.25;;;12.10;100.00
16016;BME280;8112;53.592;10.184;2024-03-23T10:16:31;100056.25;;;11.16;100.00
16016;BME280;8112;53.592;10.184;2024-03-23T10:21:33;100063.56;;;10.62;100.00
16016;BME280;8112;53.592;10.184;2024-03-23T10:26:36;100053.28;;;9.80;100.00
16016;BME280;8112;53.592;10.184;2024-03-23T10:31:39;100051.00;;;10.27;100.00
16016;BME280;8112;53.592;10.184;2024-03-23T10:36:44;100034.66;;;10.61;100.00
16016;BME280;8112;53.592;10.184;2024-03-23T10:41:47;100023.72;;;10.91;100.00
16016;BME280;8112;53.592;10.184;2024-03-23T10:46:52;100025.56;;;10.78;100.00
16016;BME280;8112;53.592;10.184;2024-03-23T10:52:00;100021.75;;;10.45;100.00
16016;BME280;8112;53.592;10.184;2024-03-23T10:57:04;100025.69;;;9.86;100.00
16016;BME280;8112;53.592;10.184;2024-03-23T11:02:18;100028.31;;;9.05;100.00
16016;BME280;8112;53.592;10.184;2024-03-23T11:07:28;100025.91;;;9.95;100.00
16016;BME280;8112;53.592;10.184;2024-03-23T11:12:35;100018.56;;;9.47;100.00
16016;BME280;8112;53.592;10.184;2024-03-23T11:17:38;100016.81;;;9.20;100.00
16016;BME280;8112;53.592;10.184;2024-03-23T11:22:44;100007.25;;;10.37;100.00
16016;BME280;8112;53.592;10.184;2024-03-23T11:27:53;99993.59;;;12.25;100.00
16016;BME280;8112;53.592;10.184;2024-03-23T11:32:57;99989.66;;;13.85;100.00
16016;BME280;8112;53.592;10.184;2024-03-23T11:38:03;99974.56;;;14.37;100.00
16016;BME280;8112;53.592;10.184;2024-03-23T11:43:05;99977.91;;;15.59;100.00
16016;BME280;8112;53.592;10.184;2024-03-23T11:48:10;99986.31;;;15.35;100.00
16016;BME280;8112;53.592;10.184;2024-03-23T11:53:15;99970.38;;;14.86;98.45
16016;BME280;8112;53.592;10.184;2024-03-23T11:58:18;99961.31;;;15.37;86.67
16016;BME280;8112;53.592;10.184;2024-03-23T12:03:22;99969.16;;;16.44;83.74
16016;BME280;8112;53.592;10.184;2024-03-23T12:08:30;99958.19;;;15.72;82.94
16016;BME280;8112;53.592;10.184;2024-03-23T12:13:32;99988.25;;;14.43;84.58
16016;BME280;8112;53.592;10.184;2024-03-23T12:18:36;100037.13;;;10.88;100.00
16016;BME280;8112;53.592;10.184;2024-03-23T12:23:39;100066.34;;;6.70;100.00
16016;BME280;8112;53.592;10.184;2024-03-23T12:28:42;100045.22;;;6.58;100.00
16016;BME280;8112;53.592;10.184;2024-03-23T12:33:46;100034.34;;;7.91;100.00
16016;BME280;8112;53.592;10.184;2024-03-23T12:38:47;100018.13;;;7.53;100.00
16016;BME280;8112;53.592;10.184;2024-03-23T12:43:51;100015.09;;;7.76;100.00
16016;BME280;8112;53.592;10.184;2024-03-23T12:48:54;100031.38;;;8.26;100.00
16016;BME280;8112;53.592;10.184;2024-03-23T12:53:56;100043.78;;;8.53;100.00
16016;BME280;8112;53.592;10.184;2024-03-23T12:58:58;100082.06;;;6.70;100.00
16016;BME280;8112;53.592;10.184;2024-03-23T13:04:04;100047.66;;;5.39;100.00
16016;BME280;8112;53.592;10.184;2024-03-23T13:09:06;100061.84;;;5.52;100.00
16016;BME280;8112;53.592;10.184;2024-03-23T13:14:08;100064.69;;;5.28;100.00
16016;BME280;8112;53.592;10.184;2024-03-23T13:19:13;100067.69;;;5.38;100.00
16016;BME280;8112;53.592;10.184;2024-03-23T13:24:14;100060.59;;;5.95;100.00
16016;BME280;8112;53.592;10.184;2024-03-23T13:29:17;100069.47;;;6.61;100.00
16016;BME280;8112;53.592;10.184;2024-03-23T13:34:20;100063.31;;;6.78;100.00
16016;BME280;8112;53.592;10.184;2024-03-23T13:39:23;100062.91;;;7.02;100.00
16016;BME280;8112;53.592;10.184;2024-03-23T13:44:25;100070.41;;;6.92;100.00
16016;BME280;8112;53.592;10.184;2024-03-23T13:49:30;100056.66;;;7.37;100.00
16016;BME280;8112;53.592;10.184;2024-03-23T13:54:32;100066.97;;;9.85;100.00
16016;BME280;8112;53.592;10.184;2024-03-23T13:59:34;100048.72;;;10.86;100.00
16016;BME280;8112;53.592;10.184;2024-03-23T14:04:38;100054.69;;;10.11;100.00
16016;BME280;8112;53.592;10.184;2024-03-23T14:09:41;100051.59;;;8.96;100.00
16016;BME280;8112;53.592;10.184;2024-03-23T14:14:43;100057.66;;;8.84;100.00
16016;BME280;8112;53.592;10.184;2024-03-23T14:19:46;100055.97;;;9.25;100.00
16016;BME280;8112;53.592;10.184;2024-03-23T14:24:48;100047.53;;;10.65;100.00
16016;BME280;8112;53.592;10.184;2024-03-23T14:29:50;100056.38;;;13.02;100.00
16016;BME280;8112;53.592;10.184;2024-03-23T14:34:53;100046.94;;;12.53;100.00
16016;BME280;8112;53.592;10.184;2024-03-23T14:39:55;100045.72;;;12.46;100.00
16016;BME280;8112;53.592;10.184;2024-03-23T14:44:57;100035.03;;;11.42;100.00
16016;BME280;8112;53.592;10.184;2024-03-23T14:50:01;100050.44;;;10.74;100.00
16016;BME280;8112;53.592;10.184;2024-03-23T14:55:03;100037.16;;;11.37;100.00
16016;BME280;8112;53.592;10.184;2024-03-23T15:00:07;100034.16;;;10.43;100.00
16016;BME280;8112;53.592;10.184;2024-03-23T15:05:12;100027.41;;;8.91;100.00
16016;BME280;8112;53.592;10.184;2024-03-23T15:10:14;100037.22;;;8.60;100.00
16016;BME280;8112;53.592;10.184;2024-03-23T15:15:17;100071.34;;;7.39;100.00
16016;BME280;8112;53.592;10.184;2024-03-23T15:20:21;100063.50;;;6.91;100.00
16016;BME280;8112;53.592;10.184;2024-03-23T15:25:23;100054.94;;;6.72;100.00
16016;BME280;8112;53.592;10.184;2024-03-23T15:30:25;100051.16;;;6.61;100.00
16016;BME280;8112;53.592;10.184;2024-03-23T15:35:28;100041.72;;;6.91;100.00
16016;BME280;8112;53.592;10.184;2024-03-23T15:40:30;100045.25;;;6.90;100.00
16016;BME280;8112;53.592;10.184;2024-03-23T15:45:32;100048.22;;;6.99;100.00
16016;BME280;8112;53.592;10.184;2024-03-23T15:50:50;100045.59;;;6.99;100.00
16016;BME280;8112;53.592;10.184;2024-03-23T15:55:55;100036.28;;;6.94;100.00
16016;BME280;8112;53.592;10.184;2024-03-23T16:00:58;100048.47;;;6.95;100.00
16016;BME280;8112;53.592;10.184;2024-03-23T16:06:03;100035.44;;;6.93;100.00
16016;BME280;8112;53.592;10.184;2024-03-23T16:11:06;100050.91;;;7.14;100.00
16016;BME280;8112;53.592;10.184;2024-03-23T16:16:09;100035.81;;;7.50;100.00
16016;BME280;8112;53.592;10.184;2024-03-23T16:21:12;100038.41;;;7.19;100.00
16016;BME280;8112;53.592;10.184;2024-03-23T16:26:14;100035.19;;;7.14;100.00
16016;BME280;8112;53.592;10.184;2024-03-23T16:31:17;100030.63;;;7.18;100.00
16016;BME280;8112;53.592;10.184;2024-03-23T16:36:21;100041.13;;;7.02;100.00
16016;BME280;8112;53.592;10.184;2024-03-23T16:41:23;100049.31;;;6.95;100.00
16016;BME280;8112;53.592;10.184;2024-03-23T16:46:24;100051.31;;;6.90;100.00
16016;BME280;8112;53.592;10.184;2024-03-23T16:51:29;100063.56;;;6.24;100.00
16016;BME280;8112;53.592;10.184;2024-03-23T16:56:32;100066.38;;;5.84;100.00
16016;BME280;8112;53.592;10.184;2024-03-23T17:01:34;100047.38;;;5.98;100.00
16016;BME280;8112;53.592;10.184;2024-03-23T17:06:38;100042.91;;;5.65;100.00
16016;BME280;8112;53.592;10.184;2024-03-23T17:11:41;100041.00;;;5.68;100.00
16016;BME280;8112;53.592;10.184;2024-03-23T17:16:45;100039.38;;;5.66;100.00
16016;BME280;8112;53.592;10.184;2024-03-23T17:21:48;100023.31;;;5.74;100.00
16016;BME280;8112;53.592;10.184;2024-03-23T17:26:50;100025.63;;;5.62;100.00
16016;BME280;8112;53.592;10.184;2024-03-23T17:31:52;100021.41;;;5.60;100.00
16016;BME280;8112;53.592;10.184;2024-03-23T17:36:55;100023.84;;;5.63;100.00
16016;BME280;8112;53.592;10.184;2024-03-23T17:41:59;100028.69;;;5.53;100.00
16016;BME280;8112;53.592;10.184;2024-03-23T17:47:01;100028.00;;;5.49;100.00
16016;BME280;8112;53.592;10.184;2024-03-23T17:52:10;100027.91;;;5.33;100.00
16016;BME280;8112;53.592;10.184;2024-03-23T17:57:13;100032.44;;;5.47;100.00
16016;BME280;8112;53.592;10.184;2024-03-23T18:02:15;100034.63;;;5.56;100.00
16016;BME280;8112;53.592;10.184;2024-03-23T18:07:19;100023.56;;;5.51;100.00
16016;BME280;8112;53.592;10.184;2024-03-23T18:12:23;100013.00;;;5.35;100.00
16016;BME280;8112;53.592;10.184;2024-03-23T18:17:25;100017.22;;;5.38;100.00
16016;BME280;8112;53.592;10.184;2024-03-23T18:22:29;100027.44;;;5.25;100.00
16016;BME280;8112;53.592;10.184;2024-03-23T18:27:31;100025.34;;;5.14;100.00
16016;BME280;8112;53.592;10.184;2024-03-23T18:32:32;100018.94;;;5.20;100.00
16016;BME280;8112;53.592;10.184;2024-03-23T18:37:37;100030.41;;;5.17;100.00
16016;BME280;8112;53.592;10.184;2024-03-23T18:42:40;100019.66;;;5.23;100.00
16016;BME280;8112;53.592;10.184;2024-03-23T18:47:44;100016.59;;;5.15;100.00
16016;BME280;8112;53.592;10.184;2024-03-23T18:52:47;100019.09;;;5.17;100.00
16016;BME280;8112;53.592;10.184;2024-03-23T18:57:49;100014.56;;;5.03;100.00
16016;BME280;8112;53.592;10.184;2024-03-23T19:02:54;100016.03;;;4.89;100.00
16016;BME280;8112;53.592;10.184;2024-03-23T19:07:58;100003.75;;;4.91;100.00
16016;BME280;8112;53.592;10.184;2024-03-23T19:13:00;100002.66;;;4.78;100.00
16016;BME280;8112;53.592;10.184;2024-03-23T19:18:03;100001.09;;;4.74;100.00
16016;BME280;8112;53.592;10.184;2024-03-23T19:23:07;99996.22;;;4.85;100.00
16016;BME280;8112;53.592;10.184;2024-03-23T19:28:09;99990.50;;;4.96;100.00
16016;BME280;8112;53.592;10.184;2024-03-23T19:33:12;100010.25;;;4.82;100.00
16016;BME280;8112;53.592;10.184;2024-03-23T19:38:16;100004.41;;;4.77;100.00
16016;BME280;8112;53.592;10.184;2024-03-23T19:43:20;99999.69;;;4.66;100.00
16016;BME280;8112;53.592;10.184;2024-03-23T19:48:22;100008.72;;;4.59;100.00
16016;BME280;8112;53.592;10.184;2024-03-23T19:53:26;99993.19;;;4.56;100.00
16016;BME280;8112;53.592;10.184;2024-03-23T19:58:28;99996.47;;;4.61;100.00
16016;BME280;8112;53.592;10.184;2024-03-23T20:03:30;99994.44;;;5.05;100.00
16016;BME280;8112;53.592;10.184;2024-03-23T20:08:34;99998.06;;;5.20;100.00
16016;BME280;8112;53.592;10.184;2024-03-23T20:13:36;99992.31;;;5.13;100.00
16016;BME280;8112;53.592;10.184;2024-03-23T20:18:38;99982.59;;;4.78;100.00
16016;BME280;8112;53.592;10.184;2024-03-23T20:23:43;99979.38;;;4.54;100.00
16016;BME280;8112;53.592;10.184;2024-03-23T20:28:45;99974.38;;;4.68;100.00
16016;BME280;8112;53.592;10.184;2024-03-23T20:33:47;99970.56;;;4.56;100.00
16016;BME280;8112;53.592;10.184;2024-03-23T20:38:50;99970.50;;;4.58;100.00
16016;BME280;8112;53.592;10.184;2024-03-23T20:43:52;99961.19;;;4.52;100.00
16016;BME280;8112;53.592;10.184;2024-03-23T20:48:54;99953.88;;;4.41;100.00
16016;BME280;8112;53.592;10.184;2024-03-23T20:53:58;99957.50;;;4.37;100.00
16016;BME280;8112;53.592;10.184;2024-03-23T20:59:00;99952.22;;;4.20;100.00
16016;BME280;8112;53.592;10.184;2024-03-23T21:04:02;99945.88;;;4.25;100.00
16016;BME280;8112;53.592;10.184;2024-03-23T21:09:05;99943.47;;;4.21;100.00
16016;BME280;8112;53.592;10.184;2024-03-23T21:14:08;99941.78;;;4.20;100.00
16016;BME280;8112;53.592;10.184;2024-03-23T21:19:10;99932.34;;;4.17;100.00
16016;BME280;8112;53.592;10.184;2024-03-23T21:24:14;99939.16;;;4.20;100.00
16016;BME280;8112;53.592;10.184;2024-03-23T21:29:16;99937.00;;;4.10;100.00
16016;BME280;8112;53.592;10.184;2024-03-23T21:34:18;99937.03;;;4.09;100.00
16016;BME280;8112;53.592;10.184;2024-03-23T21:39:22;99929.16;;;4.10;100.00
16016;BME280;8112;53.592;10.184;2024-03-23T21:44:24;99932.56;;;4.12;100.00
16016;BME280;8112;53.592;10.184;2024-03-23T21:49:26;99932.84;;;4.06;100.00
16016;BME280;8112;53.592;10.184;2024-03-23T21:54:29;99928.75;;;4.20;100.00
16016;BME280;8112;53.592;10.184;2024-03-23T21:59:31;99926.38;;;4.15;100.00
16016;BME280;8112;53.592;10.184;2024-03-23T22:04:33;99908.78;;;4.19;100.00
16016;BME280;8112;53.592;10.184;2024-03-23T22:09:37;99908.38;;;4.28;100.00
16016;BME280;8112;53.592;10.184;2024-03-23T22:14:39;99907.31;;;4.32;100.00
16016;BME280;8112;53.592;10.184;2024-03-23T22:19:42;99898.56;;;4.33;100.00
16016;BME280;8112;53.592;10.184;2024-03-23T22:24:45;99894.84;;;4.39;100.00
16016;BME280;8112;53.592;10.184;2024-03-23T22:29:47;99890.03;;;4.30;100.00
16016;BME280;8112;53.592;10.184;2024-03-23T22:34:53;99882.66;;;4.39;100.00
16016;BME280;8112;53.592;10.184;2024-03-23T22:39:56;99876.44;;;4.42;100.00
16016;BME280;8112;53.592;10.184;2024-03-23T22:44:58;99879.69;;;4.28;100.00
16016;BME280;8112;53.592;10.184;2024-03-23T22:50:00;99875.03;;;4.16;100.00
16016;BME280;8112;53.592;10.184;2024-03-23T22:55:06;99885.91;;;4.06;100.00
16016;BME280;8112;53.592;10.184;2024-03-23T23:00:09;99872.34;;;3.98;100.00
16016;BME280;8112;53.592;10.184;2024-03-23T23:05:12;99874.03;;;3.80;100.00
16016;BME280;8112;53.592;10.184;2024-03-23T23:10:17;99860.88;;;3.83;100.00
16016;BME280;8112;53.592;10.184;2024-03-23T23:15:19;99855.22;;;3.73;100.00
16016;BME280;8112;53.592;10.184;2024-03-23T23:20:20;99860.19;;;3.59;100.00
16016;BME280;8112;53.592;10.184;2024-03-23T23:25:24;99860.34;;;3.55;100.00
16016;BME280;8112;53.592;10.184;2024-03-23T23:30:26;99855.41;;;3.49;100.00
16016;BME280;8112;53.592;10.184;2024-03-23T23:35:28;99854.59;;;3.68;100.00
16016;BME280;8112;53.592;10.184;2024-03-23T23:40:31;99848.00;;;3.80;100.00
16016;BME280;8112;53.592;10.184;2024-03-23T23:45:33;99849.47;;;3.46;100.00
16016;BME280;8112;53.592;10.184;2024-03-23T23:50:35;99847.34;;;3.35;100.00
16016;BME280;8112;53.592;10.184;2024-03-23T23:55:38;99837.19;;;3.49;100.00
